sensor_id;sensor_type;location;lat;lon;timestamp;pressure;altitude;pressure_sealevel;temperature;humidity
30182;BME280;16990;49.056;9.240;2022-09-09T00:00:25;98368.09;;;16.17;79.09
30182;BME280;16990;49.056;9.240;2022-09-09T00:03:02;98372.41;;;16.13;79.68
30182;BME280;16990;49.056;9.240;2022-09-09T00:05:36;98370.53;;;16.09;79.61
30182;BME280;16990;49.056;9.240;2022-09-09T00:08:14;98356.56;;;16.07;79.61
30182;BME280;16990;49.056;9.240;2022-09-09T00:10:45;98361.13;;;16.06;79.43
30182;BME280;16990;49.056;9.240;2022-09-09T00:13:20;98357.59;;;16.11;79.08
30182;BME280;16990;49.056;9.240;2022-09-09T00:15:54;98354.13;;;16.05;79.65
30182;BME280;16990;49.056;9.240;2022-09-09T00:18:30;98346.56;;;16.07;79.09
30182;BME280;16990;49.056;9.240;2022-09-09T00:21:05;98351.16;;;16.07;79.86
30182;BME280;16990;49.056;9.240;2022-09-09T00:23:34;98361.66;;;16.08;79.67
30182;BME280;16990;49.056;9.240;2022-09-09T00:26:06;98350.03;;;16.13;79.30
30182;BME280;16990;49.056;9.240;2022-09-09T00:28:39;98354.59;;;16.17;78.81
30182;BME280;16990;49.056;9.240;2022-09-09T00:31:12;98361.31;;;16.20;78.48
30182;BME280;16990;49.056;9.240;2022-09-09T00:33:42;98353.38;;;16.39;77.37
30182;BME280;16990;49.056;9.240;2022-09-09T00:36:13;98352.19;;;16.55;76.46
30182;BME280;16990;49.056;9.240;2022-09-09T00:38:43;98347.66;;;16.46;76.08
30182;BME280;16990;49.056;9.240;2022-09-09T00:41:18;98344.59;;;16.57;75.40
30182;BME280;16990;49.056;9.240;2022-09-09T00:43:52;98346.25;;;16.53;75.50
30182;BME280;16990;49.056;9.240;2022-09-09T00:46:37;98352.78;;;16.47;74.98
30182;BME280;16990;49.056;9.240;2022-09-09T00:49:18;98351.44;;;16.45;75.75
30182;BME280;16990;49.056;9.240;2022-09-09T00:51:56;98360.94;;;16.37;75.95
30182;BME280;16990;49.056;9.240;2022-09-09T00:54:35;98356.09;;;16.34;76.18
30182;BME280;16990;49.056;9.240;2022-09-09T00:57:17;98355.00;;;16.35;75.96
30182;BME280;16990;49.056;9.240;2022-09-09T00:59:51;98355.06;;;16.30;76.69
30182;BME280;16990;49.056;9.240;2022-09-09T01:02:27;98362.63;;;16.28;77.00
30182;BME280;16990;49.056;9.240;2022-09-09T01:04:58;98372.34;;;16.29;77.09
30182;BME280;16990;49.056;9.240;2022-09-09T01:07:27;98370.22;;;16.26;77.19
30182;BME280;16990;49.056;9.240;2022-09-09T01:09:56;98375.06;;;16.24;77.28
30182;BME280;16990;49.056;9.240;2022-09-09T01:12:28;98377.19;;;16.27;76.78
30182;BME280;16990;49.056;9.240;2022-09-09T01:15:03;98362.88;;;16.31;76.74
30182;BME280;16990;49.056;9.240;2022-09-09T01:17:31;98371.50;;;16.33;76.60
30182;BME280;16990;49.056;9.240;2022-09-09T01:20:05;98375.03;;;16.29;76.52
30182;BME280;16990;49.056;9.240;2022-09-09T01:22:36;98362.34;;;16.29;75.86
30182;BME280;16990;49.056;9.240;2022-09-09T01:25:27;98365.84;;;16.30;76.13
30182;BME280;16990;49.056;9.240;2022-09-09T01:27:58;98349.94;;;16.28;76.65
30182;BME280;16990;49.056;9.240;2022-09-09T01:30:26;98357.53;;;16.26;76.99
30182;BME280;16990;49.056;9.240;2022-09-09T01:32:56;98353.44;;;16.29;76.27
30182;BME280;16990;49.056;9.240;2022-09-09T01:35:40;98359.16;;;16.22;77.12
30182;BME280;16990;49.056;9.240;2022-09-09T01:38:09;98361.47;;;16.39;76.25
30182;BME280;16990;49.056;9.240;2022-09-09T01:40:37;98363.94;;;16.30;76.82
30182;BME280;16990;49.056;9.240;2022-09-09T01:43:05;98362.06;;;16.31;76.72
30182;BME280;16990;49.056;9.240;2022-09-09T01:45:33;98371.75;;;16.32;76.96
30182;BME280;16990;49.056;9.240;2022-09-09T01:48:00;98374.47;;;16.32;76.49
30182;BME280;16990;49.056;9.240;2022-09-09T01:50:28;98376.06;;;16.38;75.96
30182;BME280;16990;49.056;9.240;2022-09-09T01:52:57;98372.28;;;16.34;76.34
30182;BME280;16990;49.056;9.240;2022-09-09T01:55:29;98378.97;;;16.42;75.64
30182;BME280;16990;49.056;9.240;2022-09-09T01:58:04;98378.22;;;16.36;76.46
30182;BME280;16990;49.056;9.240;2022-09-09T02:00:41;98379.78;;;16.42;76.00
30182;BME280;16990;49.056;9.240;2022-09-09T02:03:19;98372.78;;;16.41;75.63
30182;BME280;16990;49.056;9.240;2022-09-09T02:05:52;98369.00;;;16.42;75.58
30182;BME280;16990;49.056;9.240;2022-09-09T02:08:28;98368.50;;;16.35;75.91
30182;BME280;16990;49.056;9.240;2022-09-09T02:11:02;98366.91;;;16.34;76.03
30182;BME280;16990;49.056;9.240;2022-09-09T02:13:32;98373.59;;;16.42;75.50
30182;BME280;16990;49.056;9.240;2022-09-09T02:16:06;98371.72;;;16.37;76.00
30182;BME280;16990;49.056;9.240;2022-09-09T02:18:38;98360.28;;;16.55;75.57
30182;BME280;16990;49.056;9.240;2022-09-09T02:21:08;98355.78;;;16.80;73.96
30182;BME280;16990;49.056;9.240;2022-09-09T02:23:38;98339.03;;;16.44;75.84
30182;BME280;16990;49.056;9.240;2022-09-09T02:26:06;98354.81;;;16.26;79.17
30182;BME280;16990;49.056;9.240;2022-09-09T02:28:34;98357.22;;;16.28;81.00
30182;BME280;16990;49.056;9.240;2022-09-09T02:31:05;98350.16;;;16.37;82.45
30182;BME280;16990;49.056;9.240;2022-09-09T02:33:35;98359.41;;;16.21;83.61
30182;BME280;16990;49.056;9.240;2022-09-09T02:36:05;98355.44;;;16.13;82.96
30182;BME280;16990;49.056;9.240;2022-09-09T02:38:38;98362.94;;;16.16;84.92
30182;BME280;16990;49.056;9.240;2022-09-09T02:41:07;98385.63;;;16.15;84.71
30182;BME280;16990;49.056;9.240;2022-09-09T02:43:34;98371.72;;;16.37;82.96
30182;BME280;16990;49.056;9.240;2022-09-09T02:46:11;98368.03;;;16.23;83.42
30182;BME280;16990;49.056;9.240;2022-09-09T02:48:50;98366.72;;;16.20;83.66
30182;BME280;16990;49.056;9.240;2022-09-09T02:51:23;98360.00;;;16.17;84.89
30182;BME280;16990;49.056;9.240;2022-09-09T02:53:59;98341.19;;;16.07;84.33
30182;BME280;16990;49.056;9.240;2022-09-09T02:56:30;98354.69;;;16.02;86.28
30182;BME280;16990;49.056;9.240;2022-09-09T02:58:59;98332.94;;;16.33;83.57
30182;BME280;16990;49.056;9.240;2022-09-09T03:01:27;98350.88;;;16.08;84.31
30182;BME280;16990;49.056;9.240;2022-09-09T03:06:21;98356.41;;;15.83;87.07
30182;BME280;16990;49.056;9.240;2022-09-09T03:08:48;98347.81;;;15.81;85.99
30182;BME280;16990;49.056;9.240;2022-09-09T03:11:15;98343.75;;;15.83;87.12
30182;BME280;16990;49.056;9.240;2022-09-09T03:13:44;98334.28;;;15.86;86.67
30182;BME280;16990;49.056;9.240;2022-09-09T03:16:16;98345.56;;;15.93;85.61
30182;BME280;16990;49.056;9.240;2022-09-09T03:18:44;98345.88;;;15.86;85.45
30182;BME280;16990;49.056;9.240;2022-09-09T03:21:11;98351.28;;;15.81;85.69
30182;BME280;16990;49.056;9.240;2022-09-09T03:23:38;98364.00;;;15.76;86.13
30182;BME280;16990;49.056;9.240;2022-09-09T03:26:04;98344.78;;;15.87;84.69
30182;BME280;16990;49.056;9.240;2022-09-09T03:28:31;98348.66;;;15.71;86.47
30182;BME280;16990;49.056;9.240;2022-09-09T03:30:59;98347.28;;;15.68;85.79
30182;BME280;16990;49.056;9.240;2022-09-09T03:33:26;98345.13;;;15.65;85.26
30182;BME280;16990;49.056;9.240;2022-09-09T03:35:54;98343.53;;;15.64;86.05
30182;BME280;16990;49.056;9.240;2022-09-09T03:38:22;98337.06;;;15.60;85.76
30182;BME280;16990;49.056;9.240;2022-09-09T03:40:50;98345.69;;;15.62;85.21
30182;BME280;16990;49.056;9.240;2022-09-09T03:43:20;98349.47;;;15.61;85.86
30182;BME280;16990;49.056;9.240;2022-09-09T03:45:47;98331.97;;;15.59;86.16
30182;BME280;16990;49.056;9.240;2022-09-09T03:48:14;98334.34;;;15.65;85.54
30182;BME280;16990;49.056;9.240;2022-09-09T03:50:44;98334.34;;;15.70;84.53
30182;BME280;16990;49.056;9.240;2022-09-09T03:53:13;98342.44;;;15.65;84.72
30182;BME280;16990;49.056;9.240;2022-09-09T03:55:43;98339.47;;;15.72;84.27
30182;BME280;16990;49.056;9.240;2022-09-09T03:58:11;98338.13;;;15.74;84.34
30182;BME280;16990;49.056;9.240;2022-09-09T04:00:38;98350.00;;;15.68;83.91
30182;BME280;16990;49.056;9.240;2022-09-09T04:03:08;98347.31;;;15.58;84.78
30182;BME280;16990;49.056;9.240;2022-09-09T04:05:34;98337.69;;;15.47;84.85
30182;BME280;16990;49.056;9.240;2022-09-09T04:08:05;98348.47;;;15.37;86.48
30182;BME280;16990;49.056;9.240;2022-09-09T04:10:33;98345.22;;;15.35;86.08
30182;BME280;16990;49.056;9.240;2022-09-09T04:13:02;98343.09;;;15.31;86.43
30182;BME280;16990;49.056;9.240;2022-09-09T04:15:29;98351.69;;;15.39;86.21
30182;BME280;16990;49.056;9.240;2022-09-09T04:17:56;98346.03;;;15.45;85.04
30182;BME280;16990;49.056;9.240;2022-09-09T04:20:23;98353.28;;;15.50;84.79
30182;BME280;16990;49.056;9.240;2022-09-09T04:22:50;98361.34;;;15.55;83.49
30182;BME280;16990;49.056;9.240;2022-09-09T04:25:17;98364.31;;;15.59;83.59
30182;BME280;16990;49.056;9.240;2022-09-09T04:27:45;98355.97;;;15.50;84.20
30182;BME280;16990;49.056;9.240;2022-09-09T04:30:12;98355.94;;;15.60;82.98
30182;BME280;16990;49.056;9.240;2022-09-09T04:32:39;98363.25;;;15.55;83.01
30182;BME280;16990;49.056;9.240;2022-09-09T04:35:06;98376.72;;;15.55;83.65
30182;BME280;16990;49.056;9.240;2022-09-09T04:37:33;98371.88;;;15.51;83.24
30182;BME280;16990;49.056;9.240;2022-09-09T04:40:00;98371.88;;;15.51;83.25
30182;BME280;16990;49.056;9.240;2022-09-09T04:42:27;98367.81;;;15.49;83.50
30182;BME280;16990;49.056;9.240;2022-09-09T04:44:55;98365.97;;;15.44;84.34
30182;BME280;16990;49.056;9.240;2022-09-09T04:47:22;98373.75;;;15.46;83.76
30182;BME280;16990;49.056;9.240;2022-09-09T04:49:48;98374.31;;;15.48;83.77
30182;BME280;16990;49.056;9.240;2022-09-09T04:52:15;98381.31;;;15.54;83.20
30182;BME280;16990;49.056;9.240;2022-09-09T04:54:42;98376.44;;;15.51;83.46
30182;BME280;16990;49.056;9.240;2022-09-09T04:57:10;98382.91;;;15.55;83.33
30182;BME280;16990;49.056;9.240;2022-09-09T04:59:37;98383.94;;;15.74;84.49
30182;BME280;16990;49.056;9.240;2022-09-09T05:02:05;98376.09;;;15.68;86.20
30182;BME280;16990;49.056;9.240;2022-09-09T05:04:32;98392.03;;;15.64;87.28
30182;BME280;16990;49.056;9.240;2022-09-09T05:06:59;98380.75;;;15.57;89.65
30182;BME280;16990;49.056;9.240;2022-09-09T05:09:26;98388.28;;;15.55;89.40
30182;BME280;16990;49.056;9.240;2022-09-09T05:11:53;98381.00;;;15.56;90.60
30182;BME280;16990;49.056;9.240;2022-09-09T05:14:20;98387.75;;;15.53;91.27
30182;BME280;16990;49.056;9.240;2022-09-09T05:16:47;98392.59;;;15.51;90.70
30182;BME280;16990;49.056;9.240;2022-09-09T05:19:16;98395.84;;;15.53;91.06
30182;BME280;16990;49.056;9.240;2022-09-09T05:21:44;98404.19;;;15.57;91.40
30182;BME280;16990;49.056;9.240;2022-09-09T05:24:11;98401.19;;;15.58;91.26
30182;BME280;16990;49.056;9.240;2022-09-09T05:26:38;98410.13;;;15.48;91.27
30182;BME280;16990;49.056;9.240;2022-09-09T05:29:04;98402.06;;;15.43;91.56
30182;BME280;16990;49.056;9.240;2022-09-09T05:31:31;98408.00;;;15.45;91.47
30182;BME280;16990;49.056;9.240;2022-09-09T05:33:58;98409.88;;;15.45;91.75
30182;BME280;16990;49.056;9.240;2022-09-09T05:36:26;98406.88;;;15.57;91.76
30182;BME280;16990;49.056;9.240;2022-09-09T05:38:53;98416.78;;;15.82;89.05
30182;BME280;16990;49.056;9.240;2022-09-09T05:41:20;98409.28;;;15.68;90.16
30182;BME280;16990;49.056;9.240;2022-09-09T05:43:48;98405.78;;;15.58;91.26
30182;BME280;16990;49.056;9.240;2022-09-09T05:46:16;98409.28;;;15.63;91.45
30182;BME280;16990;49.056;9.240;2022-09-09T05:48:45;98419.53;;;15.66;91.05
30182;BME280;16990;49.056;9.240;2022-09-09T05:51:14;98415.72;;;15.67;90.61
30182;BME280;16990;49.056;9.240;2022-09-09T05:53:44;98418.72;;;15.71;90.60
30182;BME280;16990;49.056;9.240;2022-09-09T05:56:14;98421.41;;;15.76;90.63
30182;BME280;16990;49.056;9.240;2022-09-09T05:58:41;98429.22;;;15.83;87.65
30182;BME280;16990;49.056;9.240;2022-09-09T06:01:11;98417.31;;;15.89;87.60
30182;BME280;16990;49.056;9.240;2022-09-09T06:03:40;98408.69;;;15.87;87.75
30182;BME280;16990;49.056;9.240;2022-09-09T06:06:08;98411.91;;;15.89;88.62
30182;BME280;16990;49.056;9.240;2022-09-09T06:08:36;98416.22;;;15.95;88.42
30182;BME280;16990;49.056;9.240;2022-09-09T06:11:06;98412.38;;;16.01;87.12
30182;BME280;16990;49.056;9.240;2022-09-09T06:13:33;98416.16;;;16.05;87.47
30182;BME280;16990;49.056;9.240;2022-09-09T06:16:01;98422.59;;;16.14;86.72
30182;BME280;16990;49.056;9.240;2022-09-09T06:18:27;98419.28;;;16.23;85.09
30182;BME280;16990;49.056;9.240;2022-09-09T06:20:56;98418.19;;;16.29;83.45
30182;BME280;16990;49.056;9.240;2022-09-09T06:23:23;98417.19;;;16.14;84.07
30182;BME280;16990;49.056;9.240;2022-09-09T06:25:50;98415.03;;;16.16;84.12
30182;BME280;16990;49.056;9.240;2022-09-09T06:28:19;98412.03;;;16.18;83.83
30182;BME280;16990;49.056;9.240;2022-09-09T06:30:45;98419.06;;;16.19;83.93
30182;BME280;16990;49.056;9.240;2022-09-09T06:33:12;98420.66;;;16.20;83.51
30182;BME280;16990;49.056;9.240;2022-09-09T06:35:39;98425.16;;;16.35;81.77
30182;BME280;16990;49.056;9.240;2022-09-09T06:38:05;98424.66;;;16.28;82.25
30182;BME280;16990;49.056;9.240;2022-09-09T06:40:33;98423.00;;;16.37;81.83
30182;BME280;16990;49.056;9.240;2022-09-09T06:43:00;98425.16;;;16.35;82.10
30182;BME280;16990;49.056;9.240;2022-09-09T06:45:29;98431.09;;;16.37;81.85
30182;BME280;16990;49.056;9.240;2022-09-09T06:47:56;98422.41;;;16.45;80.93
30182;BME280;16990;49.056;9.240;2022-09-09T06:50:23;98430.47;;;16.50;81.10
30182;BME280;16990;49.056;9.240;2022-09-09T06:52:49;98429.78;;;16.69;80.50
30182;BME280;16990;49.056;9.240;2022-09-09T06:55:16;98429.78;;;16.74;79.96
30182;BME280;16990;49.056;9.240;2022-09-09T06:57:43;98443.28;;;16.69;79.91
30182;BME280;16990;49.056;9.240;2022-09-09T07:00:11;98444.88;;;16.80;79.76
30182;BME280;16990;49.056;9.240;2022-09-09T07:02:40;98439.16;;;16.87;79.65
30182;BME280;16990;49.056;9.240;2022-09-09T07:05:07;98436.66;;;16.95;80.02
30182;BME280;16990;49.056;9.240;2022-09-09T07:07:34;98438.53;;;17.00;79.61
30182;BME280;16990;49.056;9.240;2022-09-09T07:10:02;98433.88;;;17.06;79.30
30182;BME280;16990;49.056;9.240;2022-09-09T07:12:30;98432.69;;;17.17;79.04
30182;BME280;16990;49.056;9.240;2022-09-09T07:14:56;98430.56;;;17.43;77.79
30182;BME280;16990;49.056;9.240;2022-09-09T07:17:23;98426.50;;;17.40;77.84
30182;BME280;16990;49.056;9.240;2022-09-09T07:19:51;98436.19;;;17.47;77.61
30182;BME280;16990;49.056;9.240;2022-09-09T07:22:18;98434.00;;;17.49;77.54
30182;BME280;16990;49.056;9.240;2022-09-09T07:24:45;98432.56;;;17.56;76.81
30182;BME280;16990;49.056;9.240;2022-09-09T07:27:12;98430.06;;;17.65;76.72
30182;BME280;16990;49.056;9.240;2022-09-09T07:29:38;98445.75;;;17.63;76.60
30182;BME280;16990;49.056;9.240;2022-09-09T07:32:05;98429.94;;;17.75;76.52
30182;BME280;16990;49.056;9.240;2022-09-09T07:34:32;98443.47;;;17.99;75.26
30182;BME280;16990;49.056;9.240;2022-09-09T07:37:00;98446.91;;;18.05;74.85
30182;BME280;16990;49.056;9.240;2022-09-09T07:39:26;98433.91;;;18.07;74.68
30182;BME280;16990;49.056;9.240;2022-09-09T07:41:53;98447.25;;;18.22;73.28
30182;BME280;16990;49.056;9.240;2022-09-09T07:44:22;98435.84;;;18.25;71.88
30182;BME280;16990;49.056;9.240;2022-09-09T07:46:50;98435.25;;;18.28;72.88
30182;BME280;16990;49.056;9.240;2022-09-09T07:49:16;98435.34;;;18.42;72.90
30182;BME280;16990;49.056;9.240;2022-09-09T07:51:45;98426.41;;;18.42;71.60
30182;BME280;16990;49.056;9.240;2022-09-09T07:54:16;98434.22;;;18.62;70.58
30182;BME280;16990;49.056;9.240;2022-09-09T07:56:45;98424.59;;;18.56;70.78
30182;BME280;16990;49.056;9.240;2022-09-09T07:59:12;98437.38;;;18.50;70.62
30182;BME280;16990;49.056;9.240;2022-09-09T08:01:40;98441.53;;;18.43;71.25
30182;BME280;16990;49.056;9.240;2022-09-09T08:04:09;98443.31;;;18.53;71.34
30182;BME280;16990;49.056;9.240;2022-09-09T08:06:42;98455.25;;;18.52;71.64
30182;BME280;16990;49.056;9.240;2022-09-09T08:09:09;98448.13;;;18.75;70.75
30182;BME280;16990;49.056;9.240;2022-09-09T08:11:39;98453.34;;;18.71;69.53
30182;BME280;16990;49.056;9.240;2022-09-09T08:14:06;98440.00;;;18.94;69.64
30182;BME280;16990;49.056;9.240;2022-09-09T08:16:36;98441.78;;;18.84;69.69
30182;BME280;16990;49.056;9.240;2022-09-09T08:19:04;98447.13;;;18.70;70.75
30182;BME280;16990;49.056;9.240;2022-09-09T08:21:34;98448.72;;;18.53;70.57
30182;BME280;16990;49.056;9.240;2022-09-09T08:24:02;98447.00;;;18.81;70.02
30182;BME280;16990;49.056;9.240;2022-09-09T08:26:33;98436.75;;;18.78;71.87
30182;BME280;16990;49.056;9.240;2022-09-09T08:29:03;98442.09;;;19.16;70.22
30182;BME280;16990;49.056;9.240;2022-09-09T08:31:31;98435.13;;;19.42;68.93
30182;BME280;16990;49.056;9.240;2022-09-09T08:33:59;98430.16;;;19.77;67.81
30182;BME280;16990;49.056;9.240;2022-09-09T08:36:28;98429.75;;;19.70;65.08
30182;BME280;16990;49.056;9.240;2022-09-09T08:38:56;98442.53;;;19.83;65.97
30182;BME280;16990;49.056;9.240;2022-09-09T08:41:37;98438.41;;;19.86;65.10
30182;BME280;16990;49.056;9.240;2022-09-09T08:44:10;98445.59;;;20.18;64.83
30182;BME280;16990;49.056;9.240;2022-09-09T08:46:46;98447.78;;;20.30;63.39
30182;BME280;16990;49.056;9.240;2022-09-09T08:49:24;98441.94;;;20.36;62.41
30182;BME280;16990;49.056;9.240;2022-09-09T08:51:57;98447.09;;;20.38;62.09
30182;BME280;16990;49.056;9.240;2022-09-09T08:54:27;98435.28;;;20.56;61.99
30182;BME280;16990;49.056;9.240;2022-09-09T08:56:58;98432.84;;;20.69;60.28
30182;BME280;16990;49.056;9.240;2022-09-09T08:59:26;98427.41;;;20.69;60.25
30182;BME280;16990;49.056;9.240;2022-09-09T09:02:01;98422.53;;;20.79;60.16
30182;BME280;16990;49.056;9.240;2022-09-09T09:04:56;98433.66;;;20.69;57.79
30182;BME280;16990;49.056;9.240;2022-09-09T09:07:36;98436.88;;;20.71;58.06
30182;BME280;16990;49.056;9.240;2022-09-09T09:10:13;98427.88;;;20.71;58.46
30182;BME280;16990;49.056;9.240;2022-09-09T09:12:43;98434.16;;;20.94;58.35
30182;BME280;16990;49.056;9.240;2022-09-09T09:15:18;98437.66;;;20.94;57.38
30182;BME280;16990;49.056;9.240;2022-09-09T09:17:46;98433.53;;;21.19;58.25
30182;BME280;16990;49.056;9.240;2022-09-09T09:20:15;98434.09;;;21.39;56.00
30182;BME280;16990;49.056;9.240;2022-09-09T09:22:47;98439.38;;;21.13;56.89
30182;BME280;16990;49.056;9.240;2022-09-09T09:25:18;98435.50;;;21.05;56.92
30182;BME280;16990;49.056;9.240;2022-09-09T09:27:51;98428.66;;;21.08;55.96
30182;BME280;16990;49.056;9.240;2022-09-09T09:30:23;98412.78;;;21.32;54.79
30182;BME280;16990;49.056;9.240;2022-09-09T09:32:54;98418.59;;;21.71;54.55
30182;BME280;16990;49.056;9.240;2022-09-09T09:35:22;98410.25;;;21.67;53.58
30182;BME280;16990;49.056;9.240;2022-09-09T09:37:49;98399.44;;;21.93;53.92
30182;BME280;16990;49.056;9.240;2022-09-09T09:40:18;98389.91;;;22.22;52.58
30182;BME280;16990;49.056;9.240;2022-09-09T09:43:00;98383.22;;;22.63;49.77
30182;BME280;16990;49.056;9.240;2022-09-09T09:45:32;98387.66;;;22.76;48.69
30182;BME280;16990;49.056;9.240;2022-09-09T09:48:01;98396.16;;;22.75;48.74
30182;BME280;16990;49.056;9.240;2022-09-09T09:50:29;98403.53;;;22.74;48.24
30182;BME280;16990;49.056;9.240;2022-09-09T09:52:58;98410.28;;;22.59;47.74
30182;BME280;16990;49.056;9.240;2022-09-09T09:55:26;98435.25;;;20.70;63.45
30182;BME280;16990;49.056;9.240;2022-09-09T09:58:01;98417.47;;;19.59;68.56
30182;BME280;16990;49.056;9.240;2022-09-09T10:00:29;98426.84;;;19.20;68.08
30182;BME280;16990;49.056;9.240;2022-09-09T10:02:56;98434.13;;;19.05;74.39
30182;BME280;16990;49.056;9.240;2022-09-09T10:05:25;98419.00;;;18.85;78.71
30182;BME280;16990;49.056;9.240;2022-09-09T10:08:03;98433.44;;;18.00;80.99
30182;BME280;16990;49.056;9.240;2022-09-09T10:10:49;98434.34;;;17.66;86.54
30182;BME280;16990;49.056;9.240;2022-09-09T10:13:20;98425.75;;;17.88;90.37
30182;BME280;16990;49.056;9.240;2022-09-09T10:15:59;98435.16;;;18.15;91.16
30182;BME280;16990;49.056;9.240;2022-09-09T10:18:57;98451.06;;;17.97;92.69
30182;BME280;16990;49.056;9.240;2022-09-09T10:21:45;98452.63;;;17.79;94.97
30182;BME280;16990;49.056;9.240;2022-09-09T10:24:40;98468.91;;;17.74;98.04
30182;BME280;16990;49.056;9.240;2022-09-09T10:27:15;98453.16;;;17.81;97.61
30182;BME280;16990;49.056;9.240;2022-09-09T10:30:09;98451.59;;;17.46;93.03
30182;BME280;16990;49.056;9.240;2022-09-09T10:32:46;98444.16;;;17.33;97.34
30182;BME280;16990;49.056;9.240;2022-09-09T10:35:30;98454.53;;;17.74;94.76
30182;BME280;16990;49.056;9.240;2022-09-09T10:38:15;98445.06;;;17.76;96.29
30182;BME280;16990;49.056;9.240;2022-09-09T10:41:13;98444.66;;;17.64;95.45
30182;BME280;16990;49.056;9.240;2022-09-09T10:43:53;98444.81;;;17.49;96.86
30182;BME280;16990;49.056;9.240;2022-09-09T10:46:31;98433.84;;;17.64;98.83
30182;BME280;16990;49.056;9.240;2022-09-09T10:49:13;98452.53;;;17.60;98.51
30182;BME280;16990;49.056;9.240;2022-09-09T10:51:50;98429.31;;;17.83;98.11
30182;BME280;16990;49.056;9.240;2022-09-09T10:54:33;98439.09;;;18.03;98.65
30182;BME280;16990;49.056;9.240;2022-09-09T10:57:07;98418.94;;;18.53;95.82
30182;BME280;16990;49.056;9.240;2022-09-09T10:59:41;98426.94;;;18.44;92.64
30182;BME280;16990;49.056;9.240;2022-09-09T11:02:15;98427.16;;;18.85;99.02
30182;BME280;16990;49.056;9.240;2022-09-09T11:04:50;98426.47;;;18.94;85.38
30182;BME280;16990;49.056;9.240;2022-09-09T11:07:26;98425.09;;;19.10;84.34
30182;BME280;16990;49.056;9.240;2022-09-09T11:10:00;98427.16;;;19.18;83.72
30182;BME280;16990;49.056;9.240;2022-09-09T11:12:30;98426.09;;;19.47;84.46
30182;BME280;16990;49.056;9.240;2022-09-09T11:15:01;98422.25;;;19.34;83.94
30182;BME280;16990;49.056;9.240;2022-09-09T11:17:38;98424.38;;;19.37;82.71
30182;BME280;16990;49.056;9.240;2022-09-09T11:20:13;98421.16;;;19.49;84.38
30182;BME280;16990;49.056;9.240;2022-09-09T11:22:46;98423.75;;;19.73;90.19
30182;BME280;16990;49.056;9.240;2022-09-09T11:25:21;98430.25;;;19.72;78.05
30182;BME280;16990;49.056;9.240;2022-09-09T11:28:01;98427.31;;;19.54;75.21
30182;BME280;16990;49.056;9.240;2022-09-09T11:30:42;98433.50;;;19.41;69.33
30182;BME280;16990;49.056;9.240;2022-09-09T11:33:49;98439.34;;;19.48;74.29
30182;BME280;16990;49.056;9.240;2022-09-09T11:36:49;98434.88;;;19.25;72.11
30182;BME280;16990;49.056;9.240;2022-09-09T11:39:47;98440.66;;;19.04;70.62
30182;BME280;16990;49.056;9.240;2022-09-09T11:42:20;98454.03;;;19.15;68.61
30182;BME280;16990;49.056;9.240;2022-09-09T11:44:47;98444.44;;;19.03;66.45
30182;BME280;16990;49.056;9.240;2022-09-09T11:47:23;98439.97;;;18.80;68.39
30182;BME280;16990;49.056;9.240;2022-09-09T11:49:55;98446.03;;;18.90;66.23
30182;BME280;16990;49.056;9.240;2022-09-09T11:52:34;98435.63;;;18.60;65.85
30182;BME280;16990;49.056;9.240;2022-09-09T11:55:08;98437.84;;;18.77;65.47
30182;BME280;16990;49.056;9.240;2022-09-09T11:57:38;98446.31;;;18.70;65.49
30182;BME280;16990;49.056;9.240;2022-09-09T12:00:06;98441.91;;;18.74;65.30
30182;BME280;16990;49.056;9.240;2022-09-09T12:02:34;98444.53;;;18.60;67.56
30182;BME280;16990;49.056;9.240;2022-09-09T12:05:05;98442.88;;;18.64;67.94
30182;BME280;16990;49.056;9.240;2022-09-09T12:07:37;98440.00;;;18.75;70.32
30182;BME280;16990;49.056;9.240;2022-09-09T12:10:20;98439.94;;;18.42;71.08
30182;BME280;16990;49.056;9.240;2022-09-09T12:12:48;98432.09;;;18.21;72.48
30182;BME280;16990;49.056;9.240;2022-09-09T12:15:25;98424.22;;;18.25;74.26
30182;BME280;16990;49.056;9.240;2022-09-09T12:17:55;98419.28;;;18.46;71.32
30182;BME280;16990;49.056;9.240;2022-09-09T12:20:26;98402.13;;;18.37;73.31
30182;BME280;16990;49.056;9.240;2022-09-09T12:23:24;98412.44;;;18.35;73.01
30182;BME280;16990;49.056;9.240;2022-09-09T12:26:00;98414.47;;;18.81;73.87
30182;BME280;16990;49.056;9.240;2022-09-09T12:28:40;98401.50;;;18.97;73.97
30182;BME280;16990;49.056;9.240;2022-09-09T12:31:15;98394.44;;;19.28;70.06
30182;BME280;16990;49.056;9.240;2022-09-09T12:33:45;98400.16;;;19.27;69.15
30182;BME280;16990;49.056;9.240;2022-09-09T12:36:15;98389.72;;;19.20;69.63
30182;BME280;16990;49.056;9.240;2022-09-09T12:38:44;98398.75;;;19.29;68.33
30182;BME280;16990;49.056;9.240;2022-09-09T12:41:20;98399.97;;;19.65;65.53
30182;BME280;16990;49.056;9.240;2022-09-09T12:43:47;98400.41;;;19.72;63.02
30182;BME280;16990;49.056;9.240;2022-09-09T12:46:22;98403.22;;;19.94;63.30
30182;BME280;16990;49.056;9.240;2022-09-09T12:48:53;98395.78;;;19.86;61.65
30182;BME280;16990;49.056;9.240;2022-09-09T12:51:25;98398.22;;;20.38;60.22
30182;BME280;16990;49.056;9.240;2022-09-09T12:53:54;98400.44;;;20.72;59.06
30182;BME280;16990;49.056;9.240;2022-09-09T12:56:23;98403.88;;;20.87;56.11
30182;BME280;16990;49.056;9.240;2022-09-09T12:58:53;98401.72;;;20.97;56.50
30182;BME280;16990;49.056;9.240;2022-09-09T13:01:22;98387.38;;;21.06;55.70
30182;BME280;16990;49.056;9.240;2022-09-09T13:03:50;98394.69;;;21.28;55.64
30182;BME280;16990;49.056;9.240;2022-09-09T13:06:20;98389.53;;;21.17;55.21
30182;BME280;16990;49.056;9.240;2022-09-09T13:08:49;98394.88;;;21.00;56.64
30182;BME280;16990;49.056;9.240;2022-09-09T13:11:20;98389.06;;;20.93;57.02
30182;BME280;16990;49.056;9.240;2022-09-09T13:13:53;98389.03;;;21.15;57.34
30182;BME280;16990;49.056;9.240;2022-09-09T13:16:22;98379.50;;;21.27;57.19
30182;BME280;16990;49.056;9.240;2022-09-09T13:18:52;98382.06;;;21.32;55.97
30182;BME280;16990;49.056;9.240;2022-09-09T13:21:31;98385.03;;;21.44;56.70
30182;BME280;16990;49.056;9.240;2022-09-09T13:23:58;98392.03;;;21.36;55.79